Terminal Aerodrome Forecast
Issued by NWS

Home | Current Version | Previous Version | Text Only | Print | Product List | Glossary On
Versions: 1 2 3 4 5 6 7 8 9 10 11 12 13 14 15 16 17 18 19 20 21 22 23 24 25 26 27 28 29 30 31
936
FTUS41 KBUF 250907 AAB
TAFJHW
TAF AMD
KJHW 250907Z 2509/2606 13005KT 3SM -RA BR BKN007 OVC012
     FM251500 VRB04KT 6SM -RA SCT003 OVC007
     FM251900 31008KT 6SM -RA SCT003 OVC007
     FM252300 30008KT P6SM SCT003 OVC007
     FM260400 31012KT P6SM BKN020
      AMD LTD TO CLD VIS AND WIND=

USA.gov is the U.S. government's official web portal to all federal, state and local government web resources and services.